createdAt,value
2023-04-26T00:00:30.203Z,96.61
2023-04-26T00:01:30.185Z,96.50
2023-04-26T00:02:30.365Z,96.61
2023-04-26T00:03:30.339Z,96.71
2023-04-26T00:04:30.376Z,96.71
2023-04-26T00:05:30.215Z,96.82
2023-04-26T00:06:30.143Z,96.86
2023-04-26T00:07:30.134Z,96.97
2023-04-26T00:08:30.127Z,97.17
2023-04-26T00:09:30.114Z,97.17
2023-04-26T00:10:30.094Z,97.44
2023-04-26T00:11:30.072Z,97.65
2023-04-26T00:12:30.065Z,97.75
2023-04-26T00:13:30.113Z,97.65
2023-04-26T00:14:30.061Z,97.55
2023-04-26T00:15:30.030Z,97.24
2023-04-26T00:16:30.126Z,96.92
2023-04-26T00:17:30.061Z,96.61
2023-04-26T00:18:30.000Z,96.55
2023-04-26T00:19:30.014Z,96.55
2023-04-26T00:20:29.981Z,96.55
2023-04-26T00:21:29.989Z,96.44
2023-04-26T00:22:29.956Z,96.55
2023-04-26T00:23:29.957Z,96.55
2023-04-26T00:24:29.936Z,96.66
2023-04-26T00:25:29.936Z,96.76
2023-04-26T00:26:29.923Z,96.76
2023-04-26T00:27:29.912Z,96.97
2023-04-26T00:28:29.914Z,97.07
2023-04-26T00:29:29.885Z,97.28
2023-04-26T00:30:29.876Z,97.38
2023-04-26T00:31:29.886Z,97.49
2023-04-26T00:32:29.884Z,97.70
2023-04-26T00:33:29.875Z,97.80
2023-04-26T00:34:29.836Z,97.70
2023-04-26T00:35:29.848Z,97.70
2023-04-26T00:36:29.801Z,97.70
2023-04-26T00:37:29.813Z,97.49
2023-04-26T00:38:29.817Z,97.43
2023-04-26T00:39:29.810Z,97.32
2023-04-26T00:40:29.788Z,97.32
2023-04-26T00:41:29.793Z,97.22
2023-04-26T00:42:29.748Z,97.32
2023-04-26T00:43:29.755Z,97.32
2023-04-26T00:44:29.752Z,97.43
2023-04-26T00:45:29.757Z,97.64
2023-04-26T00:46:29.769Z,97.64
2023-04-26T00:47:29.740Z,97.74
2023-04-26T00:48:29.703Z,97.74
2023-04-26T00:49:29.686Z,97.85
2023-04-26T00:50:29.680Z,97.95
2023-04-26T00:51:29.675Z,97.95
2023-04-26T00:52:29.663Z,98.05
2023-04-26T00:53:29.675Z,97.95
2023-04-26T00:54:29.637Z,97.85
2023-04-26T00:55:29.697Z,97.99
2023-04-26T00:56:29.620Z,97.95
2023-04-26T00:57:29.613Z,97.78
2023-04-26T00:58:29.576Z,97.89
2023-04-26T00:59:39.443Z,97.89
2023-04-26T01:00:29.573Z,97.89
2023-04-26T01:01:30.308Z,97.89
2023-04-26T01:02:29.640Z,97.89
2023-04-26T01:03:29.582Z,97.99
2023-04-26T01:04:29.585Z,97.89
2023-04-26T01:05:29.522Z,97.99
2023-04-26T01:06:29.511Z,97.89
2023-04-26T01:07:29.525Z,97.89
2023-04-26T01:08:29.527Z,97.78
2023-04-26T01:09:29.457Z,97.78
2023-04-26T01:10:29.464Z,97.78
2023-04-26T01:11:29.480Z,97.78
2023-04-26T01:12:29.463Z,97.89
2023-04-26T01:13:29.435Z,97.78
2023-04-26T01:14:29.418Z,97.78
2023-04-26T01:15:29.403Z,97.89
2023-04-26T01:16:29.442Z,97.89
2023-04-26T01:17:29.414Z,97.78
2023-04-26T01:18:29.408Z,97.78
2023-04-26T01:19:29.425Z,97.68
2023-04-26T01:20:29.386Z,97.68
2023-04-26T01:21:29.341Z,97.78
2023-04-26T01:22:29.353Z,97.89
2023-04-26T01:23:29.336Z,97.94
2023-04-26T01:24:29.332Z,98.04
2023-04-26T01:25:29.328Z,98.04
2023-04-26T01:26:29.296Z,98.14
2023-04-26T01:27:29.274Z,98.25
2023-04-26T01:28:29.290Z,98.46
2023-04-26T01:29:29.275Z,98.46
2023-04-26T01:30:29.275Z,98.56
2023-04-26T01:31:29.311Z,98.46
2023-04-26T01:32:29.244Z,98.46
2023-04-26T01:33:29.212Z,98.46
2023-04-26T01:34:29.235Z,98.46
2023-04-26T01:35:29.209Z,98.56
2023-04-26T01:36:29.183Z,98.56
2023-04-26T01:37:29.175Z,98.67
2023-04-26T01:38:29.166Z,98.88
2023-04-26T01:39:29.149Z,98.88
2023-04-26T01:40:29.173Z,98.88
2023-04-26T01:41:29.131Z,98.88
2023-04-26T01:42:29.129Z,98.88
2023-04-26T01:43:29.103Z,98.77
2023-04-26T01:44:29.107Z,98.77
2023-04-26T01:45:29.102Z,98.67
2023-04-26T01:46:29.153Z,98.46
2023-04-26T01:47:29.071Z,98.35
2023-04-26T01:48:29.054Z,98.25
2023-04-26T01:49:29.062Z,98.25
2023-04-26T01:50:29.069Z,98.14
2023-04-26T01:51:29.018Z,98.14
2023-04-26T01:52:29.059Z,98.04
2023-04-26T01:53:28.998Z,98.08
2023-04-26T01:54:28.995Z,98.08
2023-04-26T01:55:29.012Z,98.08
2023-04-26T01:56:28.968Z,98.08
2023-04-26T01:57:28.987Z,98.19
2023-04-26T01:58:28.993Z,98.29
2023-04-26T01:59:28.929Z,98.39
2023-04-26T02:00:28.953Z,98.50
2023-04-26T02:01:28.940Z,98.50
2023-04-26T02:02:29.000Z,98.61
2023-04-26T02:03:28.931Z,98.82
2023-04-26T02:04:28.969Z,98.92
2023-04-26T02:05:28.984Z,98.92
2023-04-26T02:06:28.894Z,98.82
2023-04-26T02:07:28.882Z,98.71
2023-04-26T02:08:28.847Z,98.61
2023-04-26T02:09:28.846Z,98.61
2023-04-26T02:10:28.852Z,98.39
2023-04-26T02:11:28.813Z,98.39
2023-04-26T02:12:35.980Z,98.61
2023-04-26T02:13:28.810Z,98.61
2023-04-26T02:14:29.407Z,98.61
2023-04-26T02:15:29.464Z,98.65
2023-04-26T02:16:28.925Z,98.65
2023-04-26T02:17:28.813Z,98.55
2023-04-26T02:18:28.751Z,98.44
2023-04-26T02:19:28.753Z,98.44
2023-04-26T02:20:28.744Z,98.55
2023-04-26T02:21:28.716Z,98.65
2023-04-26T02:22:28.708Z,98.75
2023-04-26T02:23:28.696Z,98.86
2023-04-26T02:24:28.703Z,98.97
2023-04-26T02:25:28.674Z,98.97
2023-04-26T02:26:28.697Z,98.97
2023-04-26T02:27:28.653Z,98.97
2023-04-26T02:28:28.686Z,99.18
2023-04-26T02:29:43.105Z,99.18
2023-04-26T02:30:28.645Z,99.07
2023-04-26T02:31:28.658Z,98.97
2023-04-26T02:32:28.708Z,99.07
2023-04-26T02:33:28.603Z,98.86
2023-04-26T02:34:28.602Z,98.75
2023-04-26T02:35:28.561Z,98.86
2023-04-26T02:36:28.558Z,98.86
2023-04-26T02:37:28.538Z,98.97
2023-04-26T02:38:28.568Z,99.07
2023-04-26T02:39:28.541Z,99.07
2023-04-26T02:40:28.539Z,99.07
2023-04-26T02:41:28.495Z,98.97
2023-04-26T02:42:28.496Z,98.97
2023-04-26T02:43:28.484Z,99.07
2023-04-26T02:44:28.494Z,99.18
2023-04-26T02:45:28.465Z,99.18
2023-04-26T02:46:28.526Z,99.28
2023-04-26T02:47:28.522Z,99.76
2023-04-26T02:48:28.452Z,99.59
2023-04-26T02:49:28.422Z,99.38
2023-04-26T02:50:28.442Z,99.18
2023-04-26T02:51:28.393Z,99.07
2023-04-26T02:52:28.383Z,98.97
2023-04-26T02:53:28.407Z,98.86
2023-04-26T02:54:28.365Z,98.86
2023-04-26T02:55:28.398Z,98.75
2023-04-26T02:56:28.375Z,98.75
2023-04-26T02:57:28.332Z,98.75
2023-04-26T02:58:28.348Z,98.65
2023-04-26T02:59:28.333Z,98.69
2023-04-26T03:00:28.305Z,98.69
2023-04-26T03:01:28.352Z,98.80
2023-04-26T03:02:28.414Z,98.80
2023-04-26T03:03:28.555Z,98.91
2023-04-26T03:04:28.286Z,99.01
2023-04-26T03:05:28.271Z,99.11
2023-04-26T03:06:28.281Z,99.22
2023-04-26T03:07:28.243Z,99.22
2023-04-26T03:08:28.269Z,99.32
2023-04-26T03:09:28.241Z,99.43
2023-04-26T03:10:28.209Z,99.43
2023-04-26T03:11:28.200Z,99.43
2023-04-26T03:12:28.200Z,99.43
2023-04-26T03:13:28.154Z,99.43
2023-04-26T03:14:28.192Z,99.54
2023-04-26T03:15:28.207Z,99.54
2023-04-26T03:16:28.233Z,99.64
2023-04-26T03:17:28.160Z,99.64
2023-04-26T03:18:28.115Z,99.64
2023-04-26T03:19:28.102Z,99.64
2023-04-26T03:20:28.150Z,99.64
2023-04-26T03:21:28.075Z,99.64
2023-04-26T03:22:28.150Z,99.74
2023-04-26T03:23:28.072Z,99.95
2023-04-26T03:24:28.115Z,99.95
2023-04-26T03:25:28.033Z,99.95
2023-04-26T03:26:28.054Z,99.95
2023-04-26T03:27:28.023Z,99.95
2023-04-26T03:28:28.014Z,99.90
2023-04-26T03:29:28.035Z,99.90
2023-04-26T03:30:28.012Z,99.90
2023-04-26T03:31:28.063Z,99.90
2023-04-26T03:32:28.037Z,99.90
2023-04-26T03:33:27.950Z,99.99
2023-04-26T03:34:27.969Z,99.99
2023-04-26T03:35:27.949Z,99.99
2023-04-26T03:36:27.929Z,99.99
2023-04-26T03:37:27.962Z,99.95
2023-04-26T03:38:27.853Z,99.95
2023-04-26T03:39:27.855Z,99.95
2023-04-26T03:40:27.859Z,99.90
2023-04-26T03:41:27.821Z,99.99
2023-04-26T03:42:27.821Z,99.95
2023-04-26T03:43:27.865Z,99.99
2023-04-26T03:44:29.301Z,99.99
2023-04-26T03:45:27.828Z,99.99
2023-04-26T03:46:27.829Z,99.99
2023-04-26T03:47:27.828Z,99.99
2023-04-26T03:48:27.757Z,99.95
2023-04-26T03:49:27.746Z,99.95
2023-04-26T03:50:27.762Z,99.99
2023-04-26T03:51:27.734Z,99.99
2023-04-26T03:52:27.745Z,99.99
2023-04-26T03:53:27.739Z,99.95
2023-04-26T03:54:27.696Z,99.95
2023-04-26T03:55:27.711Z,99.95
2023-04-26T03:56:27.715Z,99.99
2023-04-26T03:57:27.673Z,99.95
2023-04-26T03:58:27.660Z,99.95
2023-04-26T03:59:27.636Z,99.95
2023-04-26T04:00:27.691Z,99.95
2023-04-26T04:01:27.629Z,99.95
2023-04-26T04:02:27.772Z,99.95
2023-04-26T04:03:27.781Z,99.99
2023-04-26T04:04:27.783Z,99.99
2023-04-26T04:05:27.601Z,99.99
2023-04-26T04:06:27.587Z,99.99
2023-04-26T04:07:27.588Z,99.99
2023-04-26T04:08:27.581Z,99.99
2023-04-26T04:09:27.532Z,99.99
2023-04-26T04:10:27.532Z,99.99
2023-04-26T04:11:27.518Z,99.91
2023-04-26T04:12:27.521Z,99.99
2023-04-26T04:13:27.493Z,99.99
2023-04-26T04:14:27.489Z,99.99
2023-04-26T04:15:27.469Z,99.99
2023-04-26T04:16:27.566Z,99.99
2023-04-26T04:17:27.507Z,99.99
2023-04-26T04:18:27.456Z,99.92
2023-04-26T04:19:27.444Z,99.61
2023-04-26T04:20:27.447Z,99.51
2023-04-26T04:21:27.419Z,99.29
2023-04-26T04:22:27.400Z,99.08
2023-04-26T04:23:27.411Z,99.08
2023-04-26T04:24:27.377Z,98.98
2023-04-26T04:25:27.418Z,98.88
2023-04-26T04:26:27.358Z,98.77
2023-04-26T04:27:27.411Z,98.88
2023-04-26T04:28:27.339Z,98.77
2023-04-26T04:29:27.311Z,98.67
2023-04-26T04:30:27.344Z,98.56
2023-04-26T04:31:27.353Z,98.46
2023-04-26T04:32:27.358Z,98.46
2023-04-26T04:33:27.275Z,98.46
2023-04-26T04:34:27.282Z,98.46
2023-04-26T04:35:27.315Z,98.56
2023-04-26T04:36:27.292Z,98.56
2023-04-26T04:37:27.229Z,98.67
2023-04-26T04:38:27.231Z,98.77
2023-04-26T04:39:27.221Z,98.77
2023-04-26T04:40:27.226Z,98.77
2023-04-26T04:41:27.202Z,98.88
2023-04-26T04:42:27.233Z,99.08
2023-04-26T04:43:27.194Z,99.08
2023-04-26T04:44:27.222Z,98.88
2023-04-26T04:45:27.178Z,98.67
2023-04-26T04:46:27.165Z,98.56
2023-04-26T04:47:27.186Z,98.46
2023-04-26T04:48:29.141Z,98.35
2023-04-26T04:49:27.116Z,98.35
2023-04-26T04:50:27.119Z,98.46
2023-04-26T04:51:27.084Z,98.46
2023-04-26T04:52:27.138Z,98.56
2023-04-26T04:53:27.120Z,98.56
2023-04-26T04:54:27.095Z,98.67
2023-04-26T04:55:27.081Z,98.67
2023-04-26T04:56:27.068Z,98.77
2023-04-26T04:57:27.033Z,98.88
2023-04-26T04:58:27.042Z,99.08
2023-04-26T04:59:28.034Z,99.08
2023-04-26T05:00:27.003Z,99.08
2023-04-26T05:01:27.011Z,99.08
2023-04-26T05:02:27.177Z,99.08
2023-04-26T05:03:27.054Z,98.98
2023-04-26T05:04:27.193Z,98.98
2023-04-26T05:05:26.945Z,99.19
2023-04-26T05:06:26.975Z,99.40
2023-04-26T05:07:29.002Z,99.40
2023-04-26T05:08:26.922Z,99.29
2023-04-26T05:09:26.959Z,99.08
2023-04-26T05:10:26.939Z,99.08
2023-04-26T05:11:26.893Z,99.08
2023-04-26T05:12:26.894Z,99.08
2023-04-26T05:13:26.850Z,99.15
2023-04-26T05:14:26.864Z,99.04
2023-04-26T05:15:26.932Z,99.25
2023-04-26T05:16:26.888Z,99.46
2023-04-26T05:17:27.130Z,99.46
2023-04-26T05:18:26.865Z,99.56
2023-04-26T05:19:26.883Z,99.66
2023-04-26T05:20:26.913Z,99.62
2023-04-26T05:21:26.786Z,99.41
2023-04-26T05:22:26.820Z,99.20
2023-04-26T05:23:26.854Z,99.10
2023-04-26T05:24:26.759Z,99.10
2023-04-26T05:25:26.751Z,99.10
2023-04-26T05:26:26.778Z,98.99
2023-04-26T05:27:26.733Z,98.99
2023-04-26T05:28:26.738Z,98.99
2023-04-26T05:29:26.696Z,99.10
2023-04-26T05:30:26.715Z,99.10
2023-04-26T05:31:26.704Z,99.16
2023-04-26T05:32:26.723Z,99.37
2023-04-26T05:33:26.711Z,99.47
2023-04-26T05:34:26.645Z,99.37
2023-04-26T05:35:26.688Z,99.26
2023-04-26T05:36:29.153Z,99.37
2023-04-26T05:37:26.651Z,99.32
2023-04-26T05:38:26.610Z,99.22
2023-04-26T05:39:26.602Z,99.32
2023-04-26T05:40:26.592Z,99.32
2023-04-26T05:41:26.604Z,99.43
2023-04-26T05:42:26.577Z,99.53
2023-04-26T05:43:26.615Z,99.90
2023-04-26T05:44:26.553Z,99.99
2023-04-26T05:45:26.555Z,99.96
2023-04-26T05:46:26.613Z,99.99
2023-04-26T05:47:26.597Z,99.71
2023-04-26T05:48:26.516Z,99.99
2023-04-26T05:49:26.492Z,99.87
2023-04-26T05:50:26.486Z,99.66
2023-04-26T05:51:26.472Z,99.24
2023-04-26T05:52:26.481Z,98.68
2023-04-26T05:53:26.522Z,98.36
2023-04-26T05:54:26.430Z,98.26
2023-04-26T05:55:26.472Z,98.43
2023-04-26T05:56:26.436Z,98.01
2023-04-26T05:57:26.453Z,97.49
2023-04-26T05:58:26.408Z,97.28
2023-04-26T05:59:26.392Z,97.65
2023-04-26T06:00:26.384Z,97.55
2023-04-26T06:01:26.392Z,98.29
2023-04-26T06:02:26.489Z,97.35
2023-04-26T06:03:26.570Z,96.37
2023-04-26T06:04:26.703Z,95.61
2023-04-26T06:05:26.481Z,94.94
2023-04-26T06:06:26.310Z,93.13
2023-04-26T06:07:26.297Z,93.29
2023-04-26T06:08:26.314Z,91.91
2023-04-26T06:09:26.319Z,90.04
2023-04-26T06:10:26.314Z,89.31
2023-04-26T06:11:26.262Z,88.96
2023-04-26T06:12:26.254Z,88.92
2023-04-26T06:13:26.244Z,87.37
2023-04-26T06:14:30.522Z,87.74
2023-04-26T06:15:26.226Z,86.60
2023-04-26T06:16:26.236Z,86.77
2023-04-26T06:17:26.240Z,85.63
2023-04-26T06:18:26.205Z,84.50
2023-04-26T06:19:26.205Z,83.67
2023-04-26T06:20:26.164Z,84.39
2023-04-26T06:21:26.154Z,85.63
2023-04-26T06:22:26.145Z,86.15
2023-04-26T06:23:26.164Z,85.08
2023-04-26T06:24:26.164Z,83.98
2023-04-26T06:25:26.148Z,85.42
2023-04-26T06:26:26.116Z,85.02
2023-04-26T06:27:26.116Z,84.36
2023-04-26T06:28:26.100Z,84.56
2023-04-26T06:29:26.068Z,84.25
2023-04-26T06:30:26.062Z,85.45
2023-04-26T06:31:26.262Z,83.25
2023-04-26T06:32:26.097Z,81.80
2023-04-26T06:33:26.026Z,83.65
2023-04-26T06:34:26.028Z,83.34
2023-04-26T06:35:26.075Z,82.73
2023-04-26T06:36:26.007Z,82.31
2023-04-26T06:37:25.977Z,83.34
2023-04-26T06:38:26.126Z,83.04
2023-04-26T06:39:25.962Z,82.15
2023-04-26T06:40:25.944Z,83.84
2023-04-26T06:41:25.963Z,83.94
2023-04-26T06:42:25.949Z,85.24
2023-04-26T06:43:25.927Z,84.11
2023-04-26T06:44:25.914Z,84.63
2023-04-26T06:45:25.908Z,83.90
2023-04-26T06:46:25.984Z,84.59
2023-04-26T06:47:25.954Z,82.73
2023-04-26T06:48:25.874Z,82.93
2023-04-26T06:49:25.884Z,81.45
2023-04-26T06:50:26.006Z,82.48
2023-04-26T06:51:25.873Z,81.72
2023-04-26T06:52:25.868Z,80.24
2023-04-26T06:53:25.845Z,79.93
2023-04-26T06:54:25.791Z,80.65
2023-04-26T06:55:25.853Z,79.83
2023-04-26T06:56:25.816Z,81.07
2023-04-26T06:57:25.796Z,80.44
2023-04-26T06:58:25.782Z,81.07
2023-04-26T06:59:25.766Z,80.18
2023-04-26T07:00:25.765Z,80.18
2023-04-26T07:01:25.750Z,81.93
2023-04-26T07:02:25.946Z,80.38
2023-04-26T07:03:25.810Z,81.14
2023-04-26T07:04:25.928Z,81.41
2023-04-26T07:05:25.948Z,80.11
2023-04-26T07:06:25.668Z,81.35
2023-04-26T07:07:25.693Z,81.41
2023-04-26T07:08:25.654Z,82.24
2023-04-26T07:09:25.652Z,81.07
2023-04-26T07:10:25.694Z,79.48
2023-04-26T07:11:26.355Z,79.27
2023-04-26T07:12:25.621Z,78.52
2023-04-26T07:13:25.717Z,77.48
2023-04-26T07:14:25.722Z,78.11
2023-04-26T07:15:25.599Z,78.28
2023-04-26T07:16:25.609Z,76.93
2023-04-26T07:17:25.565Z,78.24
2023-04-26T07:18:25.538Z,76.28
2023-04-26T07:19:25.574Z,77.21
2023-04-26T07:20:25.605Z,77.07
2023-04-26T07:21:25.535Z,76.56
2023-04-26T07:22:25.539Z,74.74
2023-04-26T07:23:25.509Z,74.88
2023-04-26T07:24:25.496Z,75.43
2023-04-26T07:25:25.544Z,76.56
2023-04-26T07:26:25.462Z,78.14
2023-04-26T07:27:25.469Z,79.17
2023-04-26T07:28:25.444Z,78.86
2023-04-26T07:29:25.462Z,78.76
2023-04-26T07:30:25.466Z,78.04
2023-04-26T07:31:25.432Z,78.62
2023-04-26T07:32:25.524Z,78.28
2023-04-26T07:33:25.526Z,77.97
2023-04-26T07:34:25.377Z,77.11
2023-04-26T07:35:25.423Z,77.00
2023-04-26T07:36:25.393Z,76.49
2023-04-26T07:37:25.368Z,75.67
2023-04-26T07:38:25.399Z,76.39
2023-04-26T07:39:25.375Z,76.18
2023-04-26T07:40:25.358Z,76.49
2023-04-26T07:41:25.348Z,76.28
2023-04-26T07:42:25.330Z,75.35
2023-04-26T07:43:25.318Z,75.87
2023-04-26T07:44:25.271Z,75.67
2023-04-26T07:45:25.301Z,75.35
2023-04-26T07:46:25.305Z,76.18
2023-04-26T07:47:25.349Z,74.77
2023-04-26T07:48:25.261Z,76.32
2023-04-26T07:49:25.255Z,76.28
2023-04-26T07:50:25.290Z,76.28
2023-04-26T07:51:25.271Z,74.08
2023-04-26T07:52:25.224Z,75.67
2023-04-26T07:53:25.306Z,75.12
2023-04-26T07:54:25.171Z,74.70
2023-04-26T07:55:25.181Z,73.85
2023-04-26T07:56:25.187Z,74.36
2023-04-26T07:57:25.144Z,72.20
2023-04-26T07:58:25.134Z,72.38
2023-04-26T07:59:25.134Z,72.20
2023-04-26T08:00:25.184Z,74.15
2023-04-26T08:01:25.146Z,74.77
2023-04-26T08:02:33.202Z,73.61
2023-04-26T08:03:25.379Z,73.50
2023-04-26T08:04:25.167Z,73.91
2023-04-26T08:05:25.322Z,73.91
2023-04-26T08:06:25.239Z,71.79
2023-04-26T08:07:25.085Z,72.61
2023-04-26T08:08:25.032Z,72.68
2023-04-26T08:09:25.026Z,71.66
2023-04-26T08:10:25.031Z,72.24
2023-04-26T08:11:25.086Z,69.87
2023-04-26T08:12:25.019Z,72.00
2023-04-26T08:13:26.988Z,67.92
2023-04-26T08:14:24.976Z,70.59
2023-04-26T08:15:24.987Z,69.18
2023-04-26T08:16:25.035Z,71.86
2023-04-26T08:17:25.044Z,70.14
2023-04-26T08:18:24.909Z,69.97
2023-04-26T08:19:24.948Z,71.92
2023-04-26T08:20:24.903Z,72.13
2023-04-26T08:21:24.900Z,73.33
2023-04-26T08:22:24.903Z,72.17
2023-04-26T08:23:24.884Z,70.25
2023-04-26T08:24:24.873Z,72.38
2023-04-26T08:25:24.892Z,73.19
2023-04-26T08:26:24.845Z,71.51
2023-04-26T08:27:24.860Z,71.51
2023-04-26T08:28:24.819Z,71.38
2023-04-26T08:29:24.841Z,71.59
2023-04-26T08:30:24.856Z,70.56
2023-04-26T08:31:24.813Z,70.73
2023-04-26T08:32:24.829Z,70.94
2023-04-26T08:33:24.805Z,69.91
2023-04-26T08:34:24.761Z,68.91
2023-04-26T08:35:24.766Z,67.17
2023-04-26T08:36:24.736Z,68.19
2023-04-26T08:37:24.815Z,67.71
2023-04-26T08:38:24.759Z,67.33
2023-04-26T08:39:25.305Z,69.53
2023-04-26T08:40:24.695Z,67.06
2023-04-26T08:41:24.702Z,68.08
2023-04-26T08:42:24.676Z,67.78
2023-04-26T08:43:24.677Z,70.32
2023-04-26T08:44:24.670Z,64.31
2023-04-26T08:45:24.702Z,65.44
2023-04-26T08:46:24.771Z,69.12
2023-04-26T08:47:24.667Z,67.36
2023-04-26T08:48:25.622Z,68.77
2023-04-26T08:49:24.727Z,67.33
2023-04-26T08:50:24.608Z,67.13
2023-04-26T08:51:24.660Z,67.75
2023-04-26T08:52:24.592Z,70.94
2023-04-26T08:53:24.675Z,69.70
2023-04-26T08:54:24.576Z,70.11
2023-04-26T08:55:24.617Z,70.79
2023-04-26T08:56:24.563Z,70.90
2023-04-26T08:57:24.536Z,66.79
2023-04-26T08:58:24.530Z,66.61
2023-04-26T08:59:24.602Z,65.92
2023-04-26T09:00:24.503Z,64.11
2023-04-26T09:01:24.517Z,69.15
2023-04-26T09:02:24.766Z,69.97
2023-04-26T09:03:24.669Z,69.35
2023-04-26T09:04:24.806Z,70.48
2023-04-26T09:05:24.957Z,70.07
2023-04-26T09:06:24.442Z,69.76
2023-04-26T09:07:24.423Z,69.25
2023-04-26T09:08:24.413Z,70.79
2023-04-26T09:09:24.414Z,68.74
2023-04-26T09:10:24.411Z,69.15
2023-04-26T09:11:24.448Z,70.42
2023-04-26T09:12:24.412Z,71.72
2023-04-26T09:13:24.429Z,69.97
2023-04-26T09:14:24.347Z,68.63
2023-04-26T09:15:24.378Z,69.90
2023-04-26T09:16:24.378Z,70.31
2023-04-26T09:17:24.382Z,71.82
2023-04-26T09:18:25.318Z,68.53
2023-04-26T09:19:24.336Z,71.51
2023-04-26T09:20:24.333Z,69.15
2023-04-26T09:21:24.633Z,68.02
2023-04-26T09:22:24.295Z,66.99
2023-04-26T09:23:24.344Z,69.25
2023-04-26T09:24:24.249Z,70.86
2023-04-26T09:25:25.102Z,71.17
2023-04-26T09:26:24.249Z,66.44
2023-04-26T09:27:24.218Z,68.91
2023-04-26T09:28:24.195Z,67.68
2023-04-26T09:29:24.352Z,67.23
2023-04-26T09:30:24.228Z,67.75
2023-04-26T09:31:25.111Z,67.26
2023-04-26T09:32:24.140Z,69.80
2023-04-26T09:33:24.293Z,69.60
2023-04-26T09:34:24.131Z,67.33
2023-04-26T09:35:24.239Z,68.64
2023-04-26T09:36:24.162Z,67.20
2023-04-26T09:37:24.124Z,67.20
2023-04-26T09:38:24.083Z,65.77
2023-04-26T09:39:24.185Z,66.17
2023-04-26T09:40:24.072Z,66.38
2023-04-26T09:41:24.074Z,65.63
2023-04-26T09:42:24.050Z,66.25
2023-04-26T09:43:24.113Z,65.60
2023-04-26T09:44:24.081Z,64.78
2023-04-26T09:45:24.017Z,64.98
2023-04-26T09:46:24.104Z,67.35
2023-04-26T09:47:24.070Z,66.70
2023-04-26T09:48:24.005Z,67.21
2023-04-26T09:49:23.988Z,66.77
2023-04-26T09:50:23.954Z,64.28
2023-04-26T09:51:23.955Z,63.64
2023-04-26T09:52:23.962Z,63.22
2023-04-26T09:53:23.962Z,60.25
2023-04-26T09:54:23.942Z,61.18
2023-04-26T09:55:34.129Z,62.81
2023-04-26T09:56:23.941Z,63.43
2023-04-26T09:57:23.954Z,64.01
2023-04-26T09:58:23.945Z,61.55
2023-04-26T09:59:23.907Z,61.79
2023-04-26T10:00:23.853Z,61.18
2023-04-26T10:01:23.930Z,65.04
2023-04-26T10:02:23.994Z,63.60
2023-04-26T10:03:24.033Z,63.17
2023-04-26T10:04:23.929Z,61.93
2023-04-26T10:05:23.803Z,61.01
2023-04-26T10:06:23.804Z,59.66
2023-04-26T10:07:23.788Z,59.07
2023-04-26T10:08:23.786Z,59.17
2023-04-26T10:09:23.760Z,58.89
2023-04-26T10:10:23.755Z,61.55
2023-04-26T10:11:23.769Z,61.66
2023-04-26T10:12:23.788Z,59.71
2023-04-26T10:13:23.742Z,60.15
2023-04-26T10:14:23.746Z,61.71
2023-04-26T10:15:23.719Z,62.63
2023-04-26T10:16:23.740Z,61.71
2023-04-26T10:17:23.785Z,61.54
2023-04-26T10:18:23.711Z,64.10
2023-04-26T10:19:23.667Z,60.92
2023-04-26T10:20:23.647Z,62.15
2023-04-26T10:21:23.688Z,61.26
2023-04-26T10:22:23.639Z,59.95
2023-04-26T10:23:23.611Z,60.91
2023-04-26T10:24:23.629Z,60.47
2023-04-26T10:25:23.593Z,65.70
2023-04-26T10:26:23.596Z,64.37
2023-04-26T10:27:23.565Z,61.90
2023-04-26T10:28:23.598Z,62.73
2023-04-26T10:29:23.568Z,62.83
2023-04-26T10:30:23.572Z,66.70
2023-04-26T10:31:23.575Z,64.85
2023-04-26T10:32:23.570Z,64.47
2023-04-26T10:33:23.808Z,65.60
2023-04-26T10:34:23.512Z,66.01
2023-04-26T10:35:23.523Z,64.75
2023-04-26T10:36:23.479Z,66.70
2023-04-26T10:37:23.467Z,65.16
2023-04-26T10:38:23.460Z,61.98
2023-04-26T10:39:23.436Z,66.08
2023-04-26T10:40:23.560Z,65.67
2023-04-26T10:41:23.455Z,63.79
2023-04-26T10:42:24.186Z,63.39
2023-04-26T10:43:24.349Z,63.90
2023-04-26T10:44:23.415Z,62.36
2023-04-26T10:45:23.370Z,61.20
2023-04-26T10:46:23.406Z,63.97
2023-04-26T10:47:23.401Z,62.19
2023-04-26T10:48:23.348Z,64.45
2023-04-26T10:49:25.847Z,62.48
2023-04-26T10:50:23.354Z,62.37
2023-04-26T10:51:23.384Z,63.20
2023-04-26T10:52:23.394Z,60.84
2023-04-26T10:53:23.308Z,58.66
2023-04-26T10:54:23.324Z,60.12
2023-04-26T10:55:25.373Z,62.14
2023-04-26T10:56:23.281Z,63.88
2023-04-26T10:57:23.271Z,61.29
2023-04-26T10:58:23.291Z,59.35
2023-04-26T10:59:39.632Z,61.60
2023-04-26T11:00:23.232Z,58.02
2023-04-26T11:01:23.378Z,56.51
2023-04-26T11:02:23.277Z,55.30
2023-04-26T11:03:23.413Z,59.53
2023-04-26T11:04:23.304Z,55.87
2023-04-26T11:05:25.374Z,60.92
2023-04-26T11:06:23.199Z,57.26
2023-04-26T11:07:24.008Z,57.56
2023-04-26T11:08:23.193Z,63.03
2023-04-26T11:09:23.153Z,63.03
2023-04-26T11:10:23.160Z,63.34
2023-04-26T11:11:23.106Z,61.80
2023-04-26T11:12:23.150Z,61.08
2023-04-26T11:13:23.142Z,62.65
2023-04-26T11:14:23.118Z,64.19
2023-04-26T11:15:23.058Z,60.60
2023-04-26T11:16:23.154Z,62.75
2023-04-26T11:17:23.077Z,63.09
2023-04-26T11:18:23.055Z,65.45
2023-04-26T11:19:23.081Z,66.96
2023-04-26T11:20:23.027Z,66.25
2023-04-26T11:21:23.018Z,66.45
2023-04-26T11:22:23.024Z,64.70
2023-04-26T11:23:22.989Z,65.53
2023-04-26T11:24:22.980Z,66.35
2023-04-26T11:25:22.980Z,63.17
2023-04-26T11:26:22.953Z,64.53
2023-04-26T11:27:22.945Z,67.99
2023-04-26T11:28:22.937Z,68.30
2023-04-26T11:29:22.984Z,67.99
2023-04-26T11:30:22.951Z,63.71
2023-04-26T11:31:22.905Z,67.00
2023-04-26T11:32:22.947Z,66.61
2023-04-26T11:33:22.925Z,68.54
2023-04-26T11:34:22.960Z,67.85
2023-04-26T11:35:22.946Z,67.75
2023-04-26T11:36:22.984Z,69.29
2023-04-26T11:37:22.933Z,68.77
2023-04-26T11:38:22.928Z,68.67
2023-04-26T11:39:22.871Z,66.13
2023-04-26T11:40:22.848Z,66.13
2023-04-26T11:41:22.898Z,68.29
2023-04-26T11:42:22.845Z,66.24
2023-04-26T11:43:22.833Z,66.16
2023-04-26T11:44:22.815Z,65.86
2023-04-26T11:45:22.779Z,65.95
2023-04-26T11:46:22.827Z,67.43
2023-04-26T11:47:22.776Z,68.25
2023-04-26T11:48:22.773Z,68.22
2023-04-26T11:49:22.733Z,67.40
2023-04-26T11:50:22.763Z,70.48
2023-04-26T11:51:22.721Z,70.38
2023-04-26T11:52:22.688Z,68.19
2023-04-26T11:53:22.709Z,67.81
2023-04-26T11:54:22.701Z,67.68
2023-04-26T11:55:22.695Z,64.72
2023-04-26T11:56:22.688Z,68.32
2023-04-26T11:57:22.626Z,69.35
2023-04-26T11:58:22.660Z,66.99
2023-04-26T11:59:22.809Z,68.15
2023-04-26T12:00:22.638Z,70.93
2023-04-26T12:01:22.597Z,67.81
2023-04-26T12:02:22.664Z,69.87
2023-04-26T12:03:22.838Z,68.74
2023-04-26T12:04:22.639Z,67.91
2023-04-26T12:05:22.562Z,69.18
2023-04-26T12:06:22.630Z,68.35
2023-04-26T12:07:22.533Z,68.15
2023-04-26T12:08:22.538Z,68.66
2023-04-26T12:09:22.521Z,68.56
2023-04-26T12:10:22.556Z,67.53
2023-04-26T12:11:22.531Z,69.90
2023-04-26T12:12:22.497Z,71.24
2023-04-26T12:13:22.471Z,69.56
2023-04-26T12:14:22.472Z,70.48
2023-04-26T12:15:22.482Z,67.47
2023-04-26T12:16:26.713Z,69.01
2023-04-26T12:17:22.606Z,69.32
2023-04-26T12:18:22.434Z,67.33
2023-04-26T12:19:22.443Z,66.61
2023-04-26T12:20:22.408Z,67.13
2023-04-26T12:21:22.375Z,66.20
2023-04-26T12:22:22.394Z,65.38
2023-04-26T12:23:22.345Z,65.38
2023-04-26T12:24:22.354Z,64.15
2023-04-26T12:25:22.352Z,63.12
2023-04-26T12:26:22.322Z,63.43
2023-04-26T12:27:22.374Z,63.46
2023-04-26T12:28:22.328Z,63.46
2023-04-26T12:29:22.337Z,65.92
2023-04-26T12:30:22.292Z,64.15
2023-04-26T12:31:22.332Z,63.84
2023-04-26T12:32:22.773Z,66.79
2023-04-26T12:33:23.136Z,68.16
2023-04-26T12:34:22.263Z,67.11
2023-04-26T12:35:22.277Z,65.03
2023-04-26T12:36:22.237Z,62.05
2023-04-26T12:37:22.344Z,63.49
2023-04-26T12:38:22.227Z,63.07
2023-04-26T12:39:22.845Z,64.82
2023-04-26T12:40:22.212Z,64.20
2023-04-26T12:41:22.421Z,60.72
2023-04-26T12:42:22.171Z,60.95
2023-04-26T12:43:22.795Z,64.10
2023-04-26T12:44:22.781Z,64.00
2023-04-26T12:45:22.357Z,62.56
2023-04-26T12:46:22.186Z,58.21
2023-04-26T12:47:22.273Z,59.80
2023-04-26T12:48:22.102Z,61.65
2023-04-26T12:49:22.107Z,61.55
2023-04-26T12:50:22.100Z,63.20
2023-04-26T12:51:22.113Z,63.20
2023-04-26T12:52:22.062Z,62.06